Andover, New York
Current Conditions -  °F | °C
As of 2:56 PM on Thursday 27 Nov 2014 (Local Time) from KELZ Reporting Station
Overcast Overcast  
Wind Chill: 20°   Ceiling: 5500
Heat Index: 30°   Visibility: 10mi
Dew Point: 18°   Wind: 14mph
Humidity: 61%   Direction: 320°NW
Pressure: 29.97"   Gusts: NA
Location:  42.16°N, 77.8°W
Report Text: KELZ 271956Z AUTO 32012KT 10SM SCT035 OVC055 M01/M08 A2997 RMK AO2 SLP175 T10111078
Loading
Personal Weather Stations






























Interactive Weather Map New forecast layout! Learn more

10-Day Weather Forecast

Advertisements
Track Severe Weather on mobile